This is the latest recevied weather packets stored in our database for station/object KK4XZ. If no packets are shown the sender has not sent any weather packets the latest 10 day(s).
| Time | Temp. | Humidity | Pressure | Rain* | Wind** | Luminosity | Snow |
|---|---|---|---|---|---|---|---|
| 1777414528 | 19.44° C | 77% | 1017.3 hPa | 0 mm | - | - | - |
| 1777413923 | 19.44° C | 76% | 1017.1 hPa | 0 mm | - | - | - |
| 1777413338 | 19.44° C | 75% | 1017.1 hPa | 0 mm | - | - | - |
| 1777412733 | 19.44° C | 75% | 1017.2 hPa | 0 mm | - | - | - |
| 1777412128 | 20° C | 74% | 1017.2 hPa | 0 mm | - | - | - |
| 1777411523 | 20° C | 74% | 1017.4 hPa | 0 mm | - | - | - |
| 1777410919 | 20° C | 73% | 1017.4 hPa | 0 mm | - | - | - |
| 1777410334 | 20.56° C | 70% | 1017.5 hPa | 0 mm | - | - | - |
| 1777409729 | 20.56° C | 69% | 1017.6 hPa | 0 mm | - | - | - |
| 1777409124 | 20° C | 71% | 1017.5 hPa | 0 mm | - | - | - |
| 1777408519 | 20.56° C | 69% | 1017.8 hPa | 0 mm | - | - | - |
| 1777407935 | 20° C | 71% | 1018 hPa | 0 mm | - | - | - |
| 1777407330 | 20.56° C | 68% | 1018.1 hPa | 0 mm | - | - | - |
| 1777406725 | 20.56° C | 68% | 1018.3 hPa | 0 mm | - | - | - |
| 1777406120 | 21.11° C | 66% | 1018.3 hPa | 0 mm | - | - | - |
| 1777405535 | 21.11° C | 67% | 1018 hPa | 0 mm | - | - | - |
| 1777404931 | 20.56° C | 66% | 1018.3 hPa | 0 mm | - | - | - |
| 1777404326 | 20.56° C | 66% | 1018.7 hPa | 0 mm | - | - | - |
| 1777403721 | 21.11° C | 64% | 1018.8 hPa | 0 mm | - | - | - |
| 1777403117 | 21.11° C | 64% | 1018.9 hPa | 0 mm | - | - | - |
| 1777402532 | 20.56° C | 65% | 1019.6 hPa | 0 mm | - | - | - |
| 1777401927 | 21.11° C | 64% | 1019.7 hPa | 0 mm | - | - | - |
| 1777401322 | 20° C | 67% | 1019.4 hPa | 0 mm | - | - | - |
| 1777400717 | 19.44° C | 69% | 1019.2 hPa | 0 mm | - | - | - |
| 1777400132 | 18.89° C | 69% | 1019.3 hPa | 0 mm | - | - | - |
* Rain latest hour (hover to see other rain measurements)
** Current wind speed in m/s (hover to see current wind gust speed)